Time;durP1;ratioP1;P1;durP2;ratioP2;P2;SDS_P1;SDS_P2;PMS_P1;PMS_P2;Temp;Humidity;BMP_temperature;BMP_pressure;BME280_temperature;BME280_humidity;BME280_pressure;Samples;Min_cycle;Max_cycle;Signal;HPM_P1;HPM_P2
2021/05/26 00:01:00;;;;;;;3.22;1.40;;;16.20;69.00;;;;;;5053773;28;20490;-63
2021/05/26 00:03:25;;;;;;;2.33;1.42;;;16.20;69.00;;;;;;5071501;28;20037;-63
2021/05/26 00:05:51;;;;;;;3.35;1.40;;;16.20;69.00;;;;;;5071608;28;20478;-64
2021/05/26 00:08:26;;;;;;;3.50;1.52;;;16.20;69.00;;;;;;5053628;28;20024;-63
2021/05/26 00:10:52;;;;;;;3.25;1.30;;;16.20;69.00;;;;;;5071482;28;20048;-63
2021/05/26 00:13:18;;;;;;;3.60;1.60;;;16.20;69.10;;;;;;5071500;28;20043;-63
2021/05/26 00:15:44;;;;;;;2.92;1.33;;;16.20;69.10;;;;;;5071340;28;20537;-63
2021/05/26 00:18:09;;;;;;;2.35;1.50;;;16.20;69.10;;;;;;5053606;28;20021;-64
2021/05/26 00:20:35;;;;;;;2.92;1.60;;;16.20;69.10;;;;;;5071554;28;20029;-63
2021/05/26 00:23:00;;;;;;;2.38;1.48;;;16.20;69.10;;;;;;5053473;28;20029;-63
2021/05/26 00:25:26;;;;;;;3.20;1.40;;;16.20;69.00;;;;;;5052987;28;20021;-63
2021/05/26 00:27:57;;;;;;;2.55;1.50;;;16.20;69.00;;;;;;5053480;28;20024;-63
2021/05/26 00:30:23;;;;;;;;;;;16.20;69.00;;;;;;5071918;28;20020;-63
2021/05/26 00:32:49;;;;;;;4.70;1.50;;;16.20;69.00;;;;;;5071167;28;20270;-63
2021/05/26 00:35:14;;;;;;;3.75;1.52;;;16.20;69.00;;;;;;5071082;28;20023;-64
2021/05/26 00:37:40;;;;;;;2.13;1.33;;;16.20;69.00;;;;;;5073047;28;20441;-63
2021/05/26 00:40:06;;;;;;;3.92;1.50;;;16.20;69.00;;;;;;5075246;28;20123;-62
2021/05/26 00:42:31;;;;;;;4.13;1.55;;;16.20;69.00;;;;;;5057287;28;20115;-63
2021/05/26 00:44:57;;;;;;;3.05;1.77;;;16.20;69.00;;;;;;5076255;28;20037;-64
2021/05/26 00:47:42;;;;;;;2.30;1.58;;;16.20;69.00;;;;;;5037358;28;20135;-63
2021/05/26 00:50:12;;;;;;;3.45;1.73;;;16.20;69.00;;;;;;5054984;28;20223;-63
2021/05/26 00:52:39;;;;;;;3.30;1.55;;;16.10;69.00;;;;;;5055018;28;20049;-63
2021/05/26 00:55:06;;;;;;;2.45;1.50;;;16.20;69.00;;;;;;5036769;28;20017;-63
2021/05/26 00:57:33;;;;;;;5.20;1.70;;;16.10;69.00;;;;;;5054899;28;20104;-64
2021/05/26 00:59:59;;;;;;;3.53;1.52;;;16.10;69.00;;;;;;5036694;28;20040;-63
2021/05/26 01:02:24;;;;;;;2.72;1.33;;;16.10;69.10;;;;;;5054850;28;20025;-63
2021/05/26 01:04:50;;;;;;;2.40;1.55;;;16.10;69.00;;;;;;5054596;28;20029;-63
2021/05/26 01:07:16;;;;;;;4.93;1.80;;;16.10;69.00;;;;;;5036777;28;20029;-63
2021/05/26 01:09:41;;;;;;;2.97;1.63;;;16.10;69.00;;;;;;5054116;28;20029;-63
2021/05/26 01:12:08;;;;;;;4.93;1.73;;;16.10;69.00;;;;;;5036799;28;20063;-63
2021/05/26 01:14:33;;;;;;;3.67;1.88;;;16.10;69.00;;;;;;5054309;28;20021;-63
2021/05/26 01:16:59;;;;;;;3.95;1.67;;;16.10;69.00;;;;;;5054616;28;20564;-63
2021/05/26 01:19:24;;;;;;;3.42;1.90;;;16.10;69.00;;;;;;5036650;28;20041;-66
2021/05/26 01:21:51;;;;;;;4.22;1.83;;;16.10;69.00;;;;;;5054411;28;20029;-63
2021/05/26 01:24:17;;;;;;;3.08;1.85;;;16.10;69.00;;;;;;5054069;28;20098;-64
2021/05/26 01:26:47;;;;;;;3.15;1.85;;;16.10;69.00;;;;;;5054479;28;20072;-63
2021/05/26 01:29:15;;;;;;;5.28;2.50;;;16.10;69.00;;;;;;5054363;28;20448;-65
2021/05/26 01:31:41;;;;;;;4.47;2.28;;;16.10;69.00;;;;;;5054363;28;20021;-63
2021/05/26 01:34:07;;;;;;;4.05;2.10;;;16.10;69.00;;;;;;5035814;28;20559;-63
2021/05/26 01:36:34;;;;;;;3.85;2.25;;;16.10;69.00;;;;;;5054282;28;20095;-63
2021/05/26 01:39:02;;;;;;;5.53;2.40;;;16.10;69.10;;;;;;5054212;28;20029;-63
2021/05/26 01:41:27;;;;;;;4.18;2.20;;;16.10;69.00;;;;;;5054063;28;20486;-66
2021/05/26 01:43:54;;;;;;;3.92;1.90;;;16.10;69.10;;;;;;5053807;28;20035;-63
2021/05/26 01:46:21;;;;;;;3.97;2.22;;;16.00;69.10;;;;;;5065114;28;20027;-65
2021/05/26 01:48:48;;;;;;;5.50;2.30;;;16.10;69.20;;;;;;5054847;28;20039;-63
2021/05/26 01:51:14;;;;;;;4.40;2.08;;;16.10;69.20;;;;;;5056060;28;20078;-63
2021/05/26 01:53:40;;;;;;;3.30;2.00;;;16.00;69.10;;;;;;5073593;28;20028;-62
2021/05/26 01:56:21;;;;;;;5.95;2.25;;;16.10;69.20;;;;;;5073930;28;20078;-63
2021/05/26 01:58:51;;;;;;;5.38;2.10;;;16.10;69.10;;;;;;5073985;28;20474;-66
2021/05/26 02:01:17;;;;;;;2.85;1.85;;;16.00;69.10;;;;;;5073731;28;20648;-63
2021/05/26 02:03:44;;;;;;;3.25;2.00;;;16.10;69.10;;;;;;5063400;28;20035;-64
2021/05/26 02:06:11;;;;;;;5.15;2.10;;;16.10;69.10;;;;;;5059188;28;20025;-63
2021/05/26 02:08:37;;;;;;;4.13;1.90;;;16.00;69.10;;;;;;5053532;28;20021;-64
2021/05/26 02:13:47;;;;;;;4.72;2.03;;;16.00;69.10;;;;;;5053277;28;20032;-63
2021/05/26 02:16:12;;;;;;;3.38;2.03;;;16.00;69.20;;;;;;5050292;28;20029;-64
2021/05/26 02:18:38;;;;;;;4.20;2.25;;;16.00;69.20;;;;;;5062039;28;20574;-63
2021/05/26 02:21:04;;;;;;;4.53;2.05;;;16.00;69.10;;;;;;5054270;28;20024;-62
2021/05/26 02:23:29;;;;;;;6.78;2.10;;;16.00;69.20;;;;;;5072782;28;20636;-63
2021/05/26 02:25:55;;;;;;;5.13;2.00;;;16.00;69.10;;;;;;5073128;28;20136;-63
2021/05/26 02:28:20;;;;;;;4.40;2.20;;;16.00;69.10;;;;;;5073169;28;20458;-63
2021/05/26 02:30:46;;;;;;;5.03;2.28;;;16.00;69.10;;;;;;5073087;28;20021;-63
2021/05/26 02:33:11;;;;;;;4.32;2.20;;;16.00;69.00;;;;;;5072225;28;20024;-63
2021/05/26 02:35:37;;;;;;;6.40;2.20;;;16.00;69.10;;;;;;5072319;28;20020;-63
2021/05/26 02:38:02;;;;;;;4.38;2.25;;;16.00;69.10;;;;;;5073116;28;20021;-66
2021/05/26 02:40:32;;;;;;;4.75;2.25;;;16.00;69.10;;;;;;5073179;28;20027;-63
2021/05/26 02:42:58;;;;;;;5.22;2.40;;;16.00;69.10;;;;;;5054987;28;20497;-63
2021/05/26 02:45:23;;;;;;;5.13;2.13;;;16.00;69.10;;;;;;5072492;28;20025;-63
2021/05/26 02:47:49;;;;;;;7.15;2.20;;;16.00;69.20;;;;;;5072934;28;20021;-66
2021/05/26 02:50:17;;;;;;;4.40;2.08;;;15.90;69.20;;;;;;5072737;28;20029;-63
2021/05/26 02:52:44;;;;;;;5.43;2.40;;;15.90;69.00;;;;;;5072688;28;20496;-63
2021/05/26 02:55:10;;;;;;;5.43;2.40;;;15.90;69.10;;;;;;5054477;28;20440;-65
2021/05/26 02:57:36;;;;;;;5.07;2.20;;;15.90;69.10;;;;;;5072712;28;20021;-66
2021/05/26 03:00:03;;;;;;;3.95;2.03;;;15.90;69.10;;;;;;5072392;28;20486;-63
2021/05/26 03:02:28;;;;;;;4.60;2.17;;;15.90;69.10;;;;;;5054610;28;20028;-63
2021/05/26 03:04:54;;;;;;;3.30;2.13;;;15.90;69.10;;;;;;5072307;28;20077;-62
2021/05/26 03:07:19;;;;;;;3.92;2.30;;;15.90;69.10;;;;;;5072576;28;20111;-63
2021/05/26 03:09:45;;;;;;;3.90;2.00;;;15.90;69.10;;;;;;5072066;28;20032;-63
2021/05/26 03:12:10;;;;;;;5.18;2.50;;;15.90;69.10;;;;;;5054515;28;20101;-66
2021/05/26 03:14:36;;;;;;;5.97;2.28;;;15.90;69.10;;;;;;5072041;28;20502;-63
2021/05/26 03:17:02;;;;;;;4.88;2.20;;;15.90;69.10;;;;;;5072339;28;20027;-63
2021/05/26 03:19:27;;;;;;;4.97;2.50;;;15.90;69.10;;;;;;5072212;28;20021;-63
2021/05/26 03:21:53;;;;;;;4.60;2.33;;;15.90;69.10;;;;;;5054317;28;20371;-66
2021/05/26 03:24:18;;;;;;;7.43;2.40;;;15.90;69.10;;;;;;5053986;28;20035;-63
2021/05/26 03:26:45;;;;;;;4.68;2.08;;;15.90;69.40;;;;;;5054259;28;20056;-63
2021/05/26 03:29:12;;;;;;;4.72;2.30;;;15.90;69.10;;;;;;5054159;28;20489;-62
2021/05/26 03:31:38;;;;;;;5.15;2.10;;;15.80;69.10;;;;;;5072145;28;20024;-63
2021/05/26 03:34:04;;;;;;;4.57;2.22;;;15.90;69.20;;;;;;5071450;28;20032;-65
2021/05/26 03:36:30;;;;;;;6.47;2.80;;;15.90;69.20;;;;;;5054063;28;20024;-66
2021/05/26 03:38:55;;;;;;;5.70;2.05;;;15.90;69.20;;;;;;5071082;28;20032;-65
2021/05/26 03:41:21;;;;;;;7.10;2.72;;;15.80;69.20;;;;;;5071952;28;20060;-63
2021/05/26 03:43:47;;;;;;;5.13;2.30;;;15.80;69.20;;;;;;5053710;28;20024;-63
2021/05/26 03:46:13;;;;;;;5.47;2.45;;;15.90;69.30;;;;;;5071794;28;20028;-65
2021/05/26 03:48:38;;;;;;;4.88;2.08;;;15.80;69.30;;;;;;5071699;28;20031;-66
2021/05/26 03:51:04;;;;;;;8.60;2.65;;;15.90;69.30;;;;;;5071775;28;20024;-63
2021/05/26 03:53:31;;;;;;;5.13;2.30;;;15.80;69.40;;;;;;5071487;28;20025;-62
2021/05/26 03:55:56;;;;;;;6.55;2.20;;;15.80;69.40;;;;;;5071753;28;20021;-63
2021/05/26 03:58:22;;;;;;;4.45;2.28;;;15.90;69.30;;;;;;5071762;28;20496;-63
2021/05/26 04:00:47;;;;;;;4.03;1.83;;;15.80;69.30;;;;;;5053745;28;20021;-63
2021/05/26 04:03:14;;;;;;;5.50;2.25;;;15.80;69.30;;;;;;5053533;28;20027;-68
2021/05/26 04:05:39;;;;;;;4.85;2.10;;;15.80;69.30;;;;;;5053441;28;20090;-63
2021/05/26 04:08:05;;;;;;;4.28;2.00;;;15.80;69.30;;;;;;5053717;28;20485;-63
2021/05/26 04:10:31;;;;;;;6.57;2.42;;;15.80;69.30;;;;;;5053299;28;20031;-63
2021/05/26 04:12:56;;;;;;;4.47;2.25;;;15.80;69.30;;;;;;5053003;28;20021;-62
2021/05/26 04:15:22;;;;;;;4.18;2.20;;;15.80;69.20;;;;;;5071152;28;20387;-66
2021/05/26 04:17:47;;;;;;;5.55;2.35;;;15.80;69.20;;;;;;5066890;28;20013;-63
2021/05/26 04:20:13;;;;;;;6.22;1.90;;;15.80;69.20;;;;;;5071059;28;20040;-62
2021/05/26 04:22:39;;;;;;;3.92;2.38;;;15.80;69.20;;;;;;5071412;28;20021;-62
2021/05/26 04:25:05;;;;;;;7.03;2.40;;;15.80;69.10;;;;;;5071211;28;20028;-64
2021/05/26 04:27:31;;;;;;;5.22;2.03;;;15.80;69.10;;;;;;5069721;28;20086;-64
2021/05/26 04:29:58;;;;;;;5.72;2.00;;;15.80;69.20;;;;;;5060723;28;20029;-67
2021/05/26 04:32:24;;;;;;;5.55;2.33;;;15.80;69.60;;;;;;5041996;28;20024;-63
2021/05/26 04:34:50;;;;;;;5.93;1.80;;;15.90;69.50;;;;;;5046629;28;20021;-63
2021/05/26 04:37:17;;;;;;;5.05;2.00;;;15.90;69.30;;;;;;5064853;28;20024;-65
2021/05/26 04:39:46;;;;;;;4.85;2.30;;;15.90;69.30;;;;;;5065035;28;20056;-66
2021/05/26 04:42:11;;;;;;;5.85;2.30;;;15.90;69.30;;;;;;5065133;28;20042;-64
2021/05/26 04:44:37;;;;;;;5.65;2.30;;;15.90;69.40;;;;;;5064697;28;20881;-64
2021/05/26 04:47:03;;;;;;;4.32;2.30;;;15.90;69.50;;;;;;5046686;28;20052;-65
2021/05/26 04:49:28;;;;;;;5.05;2.13;;;15.90;69.50;;;;;;5055794;28;20039;-70
2021/05/26 04:51:54;;;;;;;5.00;2.03;;;15.90;69.40;;;;;;5064904;28;20033;-67
2021/05/26 04:54:20;;;;;;;4.47;2.40;;;15.90;69.50;;;;;;5064531;28;20078;-65
2021/05/26 04:56:45;;;;;;;5.28;2.53;;;15.90;69.40;;;;;;5042290;28;20013;-64
2021/05/26 04:59:12;;;;;;;6.03;1.90;;;15.90;69.30;;;;;;5052397;28;20498;-68
2021/05/26 05:01:38;;;;;;;6.85;2.83;;;15.90;69.90;;;;;;5059378;28;20025;-66
2021/05/26 05:04:04;;;;;;;9.05;3.55;;;15.80;69.90;;;;;;5051354;28;20029;-66
2021/05/26 05:06:30;;;;;;;8.45;4.03;;;15.90;70.50;;;;;;5051052;28;20029;-67
2021/05/26 05:08:55;;;;;;;7.13;3.60;;;15.80;70.30;;;;;;5047421;28;20021;-64
2021/05/26 05:11:21;;;;;;;9.10;3.55;;;15.90;70.70;;;;;;5045745;28;20079;-65
2021/05/26 05:13:47;;;;;;;7.97;3.20;;;15.80;70.70;;;;;;5059755;28;20124;-64
2021/05/26 05:16:12;;;;;;;7.30;3.65;;;15.90;70.70;;;;;;5042049;28;20036;-61
2021/05/26 05:18:38;;;;;;;8.32;3.45;;;15.80;70.30;;;;;;5056559;28;20153;-65
2021/05/26 05:21:04;;;;;;;7.70;3.25;;;15.90;70.60;;;;;;5059026;28;20036;-62
2021/05/26 05:23:29;;;;;;;8.77;3.10;;;15.80;70.50;;;;;;5061937;28;20036;-62
2021/05/26 05:25:55;;;;;;;8.23;3.10;;;15.90;70.90;;;;;;5067353;28;20040;-69
2021/05/26 05:28:21;;;;;;;13.63;3.70;;;15.90;71.10;;;;;;5067705;28;20140;-63
2021/05/26 05:30:47;;;;;;;14.48;3.80;;;15.90;70.90;;;;;;5066371;28;20850;-64
2021/05/26 05:33:13;;;;;;;11.43;3.42;;;15.90;71.10;;;;;;5065783;28;20041;-64
2021/05/26 05:35:38;;;;;;;12.50;3.45;;;15.90;71.00;;;;;;5049030;28;20035;-65
2021/05/26 05:38:04;;;;;;;15.80;3.50;;;16.00;71.00;;;;;;5067942;28;20032;-66
2021/05/26 05:40:29;;;;;;;14.20;3.10;;;15.90;71.10;;;;;;5050122;28;20501;-66
2021/05/26 05:42:55;;;;;;;7.65;2.90;;;15.90;70.90;;;;;;5067303;28;20486;-65
2021/05/26 05:45:20;;;;;;;9.73;3.45;;;16.00;70.80;;;;;;5049198;28;20397;-64
2021/05/26 05:47:47;;;;;;;9.52;3.10;;;16.00;70.70;;;;;;5067787;28;20025;-62
2021/05/26 05:50:16;;;;;;;8.02;3.63;;;15.90;70.40;;;;;;5049705;28;20093;-65
2021/05/26 05:52:48;;;;;;;8.02;2.95;;;16.00;70.80;;;;;;5049628;28;20025;-62
2021/05/26 05:55:14;;;;;;;8.65;2.80;;;15.90;70.70;;;;;;5067648;28;20025;-61
2021/05/26 05:57:40;;;;;;;7.65;3.17;;;16.00;70.90;;;;;;5067573;28;20108;-60
2021/05/26 06:00:07;;;;;;;5.80;2.67;;;16.00;70.80;;;;;;5067765;28;20442;-64
2021/05/26 06:02:33;;;;;;;8.43;3.22;;;15.90;70.80;;;;;;5067305;28;20104;-63
2021/05/26 06:04:58;;;;;;;7.80;3.42;;;16.00;70.80;;;;;;5066755;28;20085;-63
2021/05/26 06:07:24;;;;;;;6.13;2.70;;;15.90;70.80;;;;;;5049133;28;20401;-62
2021/05/26 06:09:51;;;;;;;6.57;2.70;;;16.00;70.70;;;;;;5067112;28;20478;-65
2021/05/26 06:12:17;;;;;;;6.75;2.45;;;16.00;70.70;;;;;;5067090;28;20393;-61
2021/05/26 06:14:43;;;;;;;7.97;2.50;;;16.00;70.60;;;;;;5067307;28;20027;-62
2021/05/26 06:17:08;;;;;;;6.40;2.70;;;16.00;70.50;;;;;;5049056;28;20028;-62
2021/05/26 06:19:34;;;;;;;7.03;2.50;;;16.00;70.40;;;;;;5067243;28;20484;-64
2021/05/26 06:21:59;;;;;;;7.65;2.88;;;16.00;70.50;;;;;;5067011;28;20036;-63
2021/05/26 06:24:25;;;;;;;6.35;2.58;;;16.00;70.30;;;;;;5050335;28;20033;-62
2021/05/26 06:26:50;;;;;;;7.20;2.65;;;16.00;70.30;;;;;;5046610;28;20433;-63
2021/05/26 06:29:16;;;;;;;6.93;2.70;;;16.00;70.10;;;;;;5047813;28;20017;-63
2021/05/26 06:31:41;;;;;;;8.18;2.60;;;16.00;70.00;;;;;;5048456;28;20029;-61
2021/05/26 06:34:07;;;;;;;5.20;2.53;;;16.00;69.90;;;;;;5043728;28;20033;-64
2021/05/26 06:36:33;;;;;;;6.43;2.80;;;16.00;69.80;;;;;;5064053;28;20024;-65
2021/05/26 06:39:00;;;;;;;7.50;2.80;;;16.00;69.60;;;;;;5048316;28;20039;-64
2021/05/26 06:41:25;;;;;;;5.47;2.22;;;16.10;69.50;;;;;;5047795;28;20024;-63
2021/05/26 06:43:51;;;;;;;5.57;2.45;;;16.10;69.30;;;;;;5065128;28;20509;-64
2021/05/26 06:46:16;;;;;;;9.02;2.90;;;16.10;69.40;;;;;;5066242;28;20132;-63
2021/05/26 06:48:42;;;;;;;15.05;3.20;;;16.10;69.40;;;;;;5065640;28;20043;-62
2021/05/26 06:51:07;;;;;;;13.10;3.47;;;16.10;69.60;;;;;;5067543;28;20028;-64
2021/05/26 06:53:33;;;;;;;8.80;3.63;;;16.10;70.50;;;;;;5047242;28;20260;-64
2021/05/26 06:55:58;;;;;;;17.58;4.10;;;16.20;70.50;;;;;;5065835;28;20028;-63
2021/05/26 06:58:24;;;;;;;12.40;3.22;;;16.20;70.00;;;;;;5048121;28;20025;-62
2021/05/26 07:00:49;;;;;;;11.98;3.28;;;16.20;69.70;;;;;;5066475;28;20020;-62
2021/05/26 07:03:15;;;;;;;8.63;3.72;;;16.20;69.60;;;;;;5047836;28;20025;-67
2021/05/26 07:05:41;;;;;;;10.35;3.20;;;16.20;69.50;;;;;;5065824;28;20150;-63
2021/05/26 07:08:06;;;;;;;9.52;3.00;;;16.20;69.40;;;;;;5066474;28;20554;-64
2021/05/26 07:10:32;;;;;;;8.10;2.92;;;16.20;69.50;;;;;;5066101;28;20030;-61
2021/05/26 07:12:58;;;;;;;9.07;2.88;;;16.20;69.30;;;;;;5065417;28;20390;-64
2021/05/26 07:15:24;;;;;;;9.65;3.20;;;16.20;69.30;;;;;;5065620;28;20021;-62
2021/05/26 07:17:50;;;;;;;8.00;2.75;;;16.20;69.20;;;;;;5066200;28;20486;-62
2021/05/26 07:20:16;;;;;;;9.00;3.38;;;16.20;69.00;;;;;;5065825;28;20032;-62
2021/05/26 07:22:42;;;;;;;8.68;3.10;;;16.20;68.90;;;;;;5048049;28;20028;-62
2021/05/26 07:25:08;;;;;;;8.73;3.10;;;16.20;68.90;;;;;;5047415;28;20039;-63
2021/05/26 07:27:34;;;;;;;9.07;2.80;;;16.20;68.80;;;;;;5066249;28;20079;-61
2021/05/26 07:30:00;;;;;;;8.85;2.80;;;16.20;68.90;;;;;;5065817;28;20028;-63
2021/05/26 07:32:25;;;;;;;8.52;3.05;;;16.20;68.90;;;;;;5065607;28;20024;-64
2021/05/26 07:34:51;;;;;;;10.07;2.80;;;16.20;68.80;;;;;;5047267;28;20028;-61
2021/05/26 07:37:16;;;;;;;8.45;3.10;;;16.20;68.80;;;;;;5065730;28;20047;-62
2021/05/26 07:39:42;;;;;;;8.07;2.90;;;16.20;68.80;;;;;;5065479;28;20029;-67
2021/05/26 07:42:09;;;;;;;6.20;2.78;;;16.10;68.60;;;;;;5066075;28;20039;-62
2021/05/26 07:44:35;;;;;;;10.15;3.60;;;16.20;68.60;;;;;;5064888;28;20038;-65
2021/05/26 07:47:00;;;;;;;7.07;2.70;;;16.20;68.50;;;;;;5046617;28;20032;-65
2021/05/26 07:49:26;;;;;;;6.38;2.88;;;16.20;68.50;;;;;;5065354;28;20112;-66
2021/05/26 07:51:54;;;;;;;8.18;3.40;;;16.20;68.50;;;;;;5047520;28;20032;-61
2021/05/26 07:54:24;;;;;;;8.70;3.05;;;16.30;68.80;;;;;;5064074;28;20099;-63
2021/05/26 07:56:50;;;;;;;8.32;2.80;;;16.30;69.20;;;;;;5054070;28;20055;-62
2021/05/26 07:59:16;;;;;;;6.15;2.60;;;16.40;69.00;;;;;;5062062;28;20096;-62
2021/05/26 08:01:42;;;;;;;8.68;2.80;;;16.30;68.70;;;;;;5064852;28;20024;-61
2021/05/26 08:04:11;;;;;;;7.32;2.95;;;16.40;68.50;;;;;;5047051;28;20032;-61
2021/05/26 08:06:37;;;;;;;8.35;2.95;;;16.40;68.40;;;;;;5065457;28;20104;-61
2021/05/26 08:09:04;;;;;;;6.53;2.75;;;16.50;68.30;;;;;;5047061;28;20139;-64
2021/05/26 08:11:30;;;;;;;5.88;3.40;;;16.50;68.10;;;;;;5064932;28;20025;-62
2021/05/26 08:13:57;;;;;;;6.60;3.10;;;16.60;67.60;;;;;;5064432;28;20024;-67
2021/05/26 08:16:23;;;;;;;5.68;2.88;;;16.60;67.60;;;;;;5065287;28;20048;-63
2021/05/26 08:18:49;;;;;;;7.72;3.08;;;16.70;67.40;;;;;;5065238;28;20410;-62
2021/05/26 08:21:15;;;;;;;6.18;3.15;;;16.70;67.20;;;;;;5047275;28;20025;-61
2021/05/26 08:23:41;;;;;;;7.47;3.40;;;16.80;67.20;;;;;;5046437;28;20486;-62
2021/05/26 08:26:11;;;;;;;6.07;2.80;;;16.80;66.80;;;;;;5046750;28;20036;-63
2021/05/26 08:28:37;;;;;;;6.68;2.88;;;16.90;66.90;;;;;;5064759;28;20020;-62
2021/05/26 08:31:02;;;;;;;6.18;2.83;;;16.90;66.00;;;;;;5046835;28;20074;-64
2021/05/26 08:33:28;;;;;;;6.68;3.00;;;16.90;66.20;;;;;;5064910;28;20050;-61
2021/05/26 08:35:53;;;;;;;6.03;2.70;;;16.90;66.40;;;;;;5059739;28;20044;-61
2021/05/26 08:38:19;;;;;;;5.38;2.90;;;16.90;66.60;;;;;;5064727;28;20563;-65
2021/05/26 08:40:44;;;;;;;6.93;2.80;;;16.90;66.60;;;;;;5047317;28;20063;-62
2021/05/26 08:43:15;;;;;;;8.77;3.38;;;16.90;66.50;;;;;;5064891;28;20132;-62
2021/05/26 08:45:40;;;;;;;6.40;2.97;;;16.90;66.40;;;;;;5043590;28;20028;-62
2021/05/26 08:48:12;;;;;;;7.47;3.10;;;16.90;66.40;;;;;;5064656;28;20078;-62
2021/05/26 08:50:39;;;;;;;7.35;3.33;;;16.90;66.70;;;;;;5046874;28;20037;-62
2021/05/26 08:53:04;;;;;;;6.47;2.97;;;17.10;67.00;;;;;;5064520;28;20577;-62
2021/05/26 08:55:31;;;;;;;7.50;2.95;;;17.20;66.00;;;;;;5064777;28;20033;-64
2021/05/26 08:57:59;;;;;;;6.63;3.40;;;17.30;65.90;;;;;;5047137;28;20025;-62
2021/05/26 09:00:25;;;;;;;7.07;2.83;;;17.30;65.50;;;;;;5068511;28;20569;-61
2021/05/26 09:02:50;;;;;;;7.05;2.75;;;17.30;65.30;;;;;;5068429;28;20104;-65
2021/05/26 09:05:29;;;;;;;6.03;3.17;;;17.40;65.40;;;;;;5050142;28;20049;-61
2021/05/26 09:07:55;;;;;;;8.60;3.08;;;17.60;64.50;;;;;;5046717;28;20029;-64
2021/05/26 09:10:22;;;;;;;5.82;3.03;;;17.70;64.10;;;;;;5068310;28;20503;-62
2021/05/26 09:12:50;;;;;;;5.80;2.75;;;17.90;64.60;;;;;;5068152;28;20046;-65
2021/05/26 09:15:20;;;;;;;7.68;3.05;;;18.20;63.70;;;;;;5067705;28;20024;-64
2021/05/26 09:17:48;;;;;;;6.95;2.60;;;18.00;62.30;;;;;;5068248;28;20027;-64
2021/05/26 09:20:14;;;;;;;5.68;2.42;;;17.80;62.80;;;;;;5068004;28;20028;-62
2021/05/26 09:22:55;;;;;;;6.95;3.03;;;17.70;63.40;;;;;;5067497;28;20287;-61
2021/05/26 09:25:21;;;;;;;6.47;2.90;;;17.60;63.60;;;;;;5064742;28;20043;-61
2021/05/26 09:27:46;;;;;;;7.75;3.05;;;17.50;63.50;;;;;;5049718;28;20078;-61
2021/05/26 09:30:12;;;;;;;5.93;2.58;;;17.50;64.20;;;;;;5049342;28;20509;-65
2021/05/26 09:32:37;;;;;;;5.47;2.63;;;17.40;64.20;;;;;;5067328;28;20035;-64
2021/05/26 09:35:03;;;;;;;7.45;2.80;;;17.40;64.00;;;;;;5065057;28;20060;-62
2021/05/26 09:37:31;;;;;;;8.65;3.08;;;17.40;64.30;;;;;;5067381;28;20052;-62
2021/05/26 09:40:03;;;;;;;6.05;2.67;;;17.40;64.20;;;;;;5067026;28;20074;-65
2021/05/26 09:42:43;;;;;;;5.88;3.10;;;17.50;64.10;;;;;;5067411;28;20029;-61
2021/05/26 09:45:13;;;;;;;6.00;2.90;;;17.80;63.60;;;;;;5067187;28;20032;-64
2021/05/26 09:47:52;;;;;;;8.38;2.90;;;18.20;63.40;;;;;;5049204;28;20036;-63
2021/05/26 09:50:34;;;;;;;4.65;2.50;;;18.20;62.10;;;;;;5066468;28;20081;-68
2021/05/26 09:53:08;;;;;;;7.13;2.92;;;18.30;62.50;;;;;;5066961;28;20032;-62
2021/05/26 09:55:42;;;;;;;7.75;2.80;;;18.60;62.00;;;;;;5049517;28;20032;-62
2021/05/26 09:58:16;;;;;;;4.97;2.45;;;18.80;60.80;;;;;;5067730;28;20108;-62
2021/05/26 10:00:44;;;;;;;6.60;2.60;;;18.70;59.90;;;;;;5067517;28;20072;-62
2021/05/26 10:03:10;;;;;;;6.05;2.72;;;18.50;60.00;;;;;;5049465;28;20035;-65
2021/05/26 10:05:36;;;;;;;5.63;2.50;;;18.30;60.50;;;;;;5067622;28;20394;-63
2021/05/26 10:08:13;;;;;;;6.45;2.50;;;18.20;61.00;;;;;;5049376;28;20044;-62
2021/05/26 10:10:46;;;;;;;6.75;2.70;;;18.10;61.40;;;;;;5066687;28;20555;-62
2021/05/26 10:13:12;;;;;;;6.60;2.50;;;18.00;61.60;;;;;;5067402;28;20035;-64
2021/05/26 10:15:39;;;;;;;6.43;2.50;;;18.00;61.80;;;;;;5049031;28;20063;-63
2021/05/26 10:18:05;;;;;;;5.47;2.60;;;18.00;62.00;;;;;;5067225;28;20032;-67
2021/05/26 10:20:35;;;;;;;5.05;2.35;;;18.00;62.10;;;;;;5067205;28;20039;-64
2021/05/26 10:23:05;;;;;;;5.95;2.60;;;18.10;62.00;;;;;;5067243;28;20111;-64
2021/05/26 10:25:30;;;;;;;5.70;2.25;;;18.30;62.20;;;;;;5066844;28;20456;-65
2021/05/26 10:28:00;;;;;;;4.88;2.40;;;18.80;61.20;;;;;;5066951;28;20631;-61
2021/05/26 10:30:28;;;;;;;4.45;2.30;;;18.80;59.90;;;;;;5067254;28;20111;-64
2021/05/26 10:32:59;;;;;;;5.85;2.63;;;18.60;60.00;;;;;;5066692;28;20036;-61
2021/05/26 10:35:56;;;;;;;5.95;2.38;;;18.40;60.10;;;;;;5048518;28;20494;-63
2021/05/26 10:38:22;;;;;;;5.55;2.60;;;18.30;60.70;;;;;;5057059;28;20046;-65
2021/05/26 10:40:58;;;;;;;4.20;1.98;;;18.20;60.90;;;;;;5048827;28;20029;-62
2021/05/26 10:43:24;;;;;;;4.65;2.20;;;18.20;61.10;;;;;;5048437;28;20050;-65
2021/05/26 10:45:53;;;;;;;7.70;2.60;;;18.30;61.40;;;;;;5066767;28;20442;-63
2021/05/26 10:48:41;;;;;;;4.68;2.17;;;18.40;60.70;;;;;;5066799;28;20104;-63
2021/05/26 10:51:07;;;;;;;3.78;2.05;;;18.30;60.60;;;;;;5066435;28;20579;-62
2021/05/26 10:53:37;;;;;;;5.47;2.10;;;18.30;60.80;;;;;;5048068;28;20059;-63
2021/05/26 10:56:03;;;;;;;4.22;2.15;;;18.10;61.00;;;;;;5066690;28;20032;-62
2021/05/26 10:58:40;;;;;;;4.60;2.20;;;18.10;61.20;;;;;;5066357;28;20304;-62
2021/05/26 11:01:08;;;;;;;6.78;2.47;;;18.00;61.30;;;;;;5066518;28;20029;-65
2021/05/26 11:03:38;;;;;;;7.03;2.47;;;18.00;61.10;;;;;;5060476;28;20029;-63
2021/05/26 11:06:13;;;;;;;3.90;2.15;;;18.00;61.50;;;;;;5047606;28;20410;-63
2021/05/26 11:11:23;;;;;;;6.57;2.33;;;18.00;61.60;;;;;;5065837;28;20436;-67
2021/05/26 11:14:11;;;;;;;4.72;2.05;;;18.00;61.60;;;;;;5046066;28;20111;-63
2021/05/26 11:16:40;;;;;;;4.82;2.13;;;18.00;61.70;;;;;;5064206;28;20012;-62
2021/05/26 11:19:11;;;;;;;5.40;2.00;;;18.00;61.60;;;;;;5047323;28;20161;-65
2021/05/26 11:21:37;;;;;;;;;;;18.00;61.40;;;;;;5065905;28;20020;-62
2021/05/26 11:24:03;;;;;;;4.82;2.08;;;18.00;61.40;;;;;;5047082;28;19908;-64
2021/05/26 11:26:31;;;;;;;3.88;2.05;;;18.10;61.30;;;;;;5065373;28;20030;-63
2021/05/26 11:28:57;;;;;;;4.43;1.98;;;18.20;61.60;;;;;;5058559;28;20082;-62
2021/05/26 11:31:23;;;;;;;5.82;2.17;;;18.20;61.00;;;;;;5046070;28;20032;-63
2021/05/26 11:33:58;;;;;;;4.78;1.90;;;18.30;60.90;;;;;;5064061;28;20460;-67
2021/05/26 11:36:43;;;;;;;5.68;2.03;;;18.30;60.70;;;;;;5065789;28;20519;-62
2021/05/26 11:39:28;;;;;;;3.28;1.67;;;18.20;60.60;;;;;;5047695;28;20090;-62
2021/05/26 11:42:11;;;;;;;3.53;2.03;;;18.20;60.70;;;;;;5065693;28;20055;-64
2021/05/26 11:44:38;;;;;;;8.02;2.50;;;18.10;60.70;;;;;;5045896;28;20552;-66
2021/05/26 11:47:05;;;;;;;3.92;1.80;;;18.10;61.10;;;;;;5063709;28;20116;-62
2021/05/26 11:49:32;;;;;;;5.03;2.03;;;18.10;61.30;;;;;;5046345;28;20582;-67
2021/05/26 11:52:05;;;;;;;4.43;2.00;;;18.10;61.40;;;;;;5064204;28;20060;-65
2021/05/26 11:54:31;;;;;;;9.18;2.40;;;18.10;61.20;;;;;;5046033;28;20037;-68
2021/05/26 11:57:04;;;;;;;8.90;2.40;;;18.20;61.30;;;;;;5064428;28;20066;-62
2021/05/26 11:59:30;;;;;;;6.63;2.20;;;18.30;61.30;;;;;;5064193;28;20044;-62
2021/05/26 12:01:56;;;;;;;6.35;2.17;;;18.40;61.00;;;;;;5064426;28;20032;-62
2021/05/26 12:04:23;;;;;;;5.82;2.50;;;18.40;60.80;;;;;;5064070;28;20035;-63
2021/05/26 12:06:49;;;;;;;5.80;2.30;;;18.40;60.70;;;;;;5038683;28;20036;-62
2021/05/26 12:09:28;;;;;;;6.00;2.05;;;18.40;60.80;;;;;;5064231;28;20350;-62
2021/05/26 12:11:55;;;;;;;6.43;2.15;;;18.30;60.90;;;;;;5046812;28;20058;-62
2021/05/26 12:14:25;;;;;;;7.60;2.50;;;18.30;61.00;;;;;;5046306;28;20047;-63
2021/05/26 12:16:52;;;;;;;4.30;2.10;;;18.20;61.90;;;;;;5063518;28;20021;-63
2021/05/26 12:19:18;;;;;;;7.30;2.20;;;18.20;61.40;;;;;;5045987;28;20465;-64
2021/05/26 12:21:46;;;;;;;6.95;2.22;;;18.20;61.60;;;;;;5046601;28;20111;-66
2021/05/26 12:24:14;;;;;;;5.00;2.35;;;18.30;61.80;;;;;;5045972;28;20547;-66
2021/05/26 12:26:45;;;;;;;4.47;2.10;;;18.30;61.60;;;;;;5064868;28;20131;-65
2021/05/26 12:29:11;;;;;;;3.45;1.80;;;18.40;61.30;;;;;;5064217;28;20021;-63
2021/05/26 12:31:41;;;;;;;6.10;2.20;;;18.40;61.20;;;;;;5046786;28;20029;-63
2021/05/26 12:34:14;;;;;;;6.38;2.08;;;18.40;61.20;;;;;;5048221;28;20385;-63
2021/05/26 12:36:53;;;;;;;5.68;2.20;;;18.40;61.20;;;;;;5069189;28;20021;-63
2021/05/26 12:39:20;;;;;;;4.70;1.85;;;18.50;61.20;;;;;;5068230;28;20036;-66
2021/05/26 12:41:47;;;;;;;8.23;2.25;;;18.40;61.10;;;;;;5050051;28;20107;-66
2021/05/26 12:44:13;;;;;;;8.48;2.10;;;18.40;61.20;;;;;;5067000;28;20020;-65
2021/05/26 12:46:53;;;;;;;7.75;2.15;;;18.40;61.30;;;;;;5049175;28;20081;-65
2021/05/26 12:49:32;;;;;;;7.10;2.20;;;18.40;61.40;;;;;;5058524;28;20512;-65
2021/05/26 12:52:02;;;;;;;9.23;2.40;;;18.40;61.30;;;;;;5069077;28;20785;-66
2021/05/26 12:54:38;;;;;;;7.53;2.10;;;18.40;61.30;;;;;;5068391;28;20091;-65